sensor_id;sensor_type;location;lat;lon;timestamp;pressure;altitude;pressure_sealevel;temperature;humidity
12213;BME280;6169;44.158;22.788;2023-04-04T00:02:26;100145.53;;;10.92;65.94
12213;BME280;6169;44.158;22.788;2023-04-04T00:07:30;100131.41;;;11.98;62.25
12213;BME280;6169;44.158;22.788;2023-04-04T00:12:32;100142.56;;;11.97;61.92
12213;BME280;6169;44.158;22.788;2023-04-04T00:17:34;100137.19;;;11.48;63.14
12213;BME280;6169;44.158;22.788;2023-04-04T00:22:38;100127.34;;;11.74;62.99
12213;BME280;6169;44.158;22.788;2023-04-04T00:27:40;100115.59;;;11.68;63.14
12213;BME280;6169;44.158;22.788;2023-04-04T00:32:43;100117.00;;;11.71;62.75
12213;BME280;6169;44.158;22.788;2023-04-04T00:37:46;100123.53;;;11.70;61.74
12213;BME280;6169;44.158;22.788;2023-04-04T00:42:49;100094.59;;;11.64;61.94
12213;BME280;6169;44.158;22.788;2023-04-04T00:47:51;100103.19;;;11.23;62.46
12213;BME280;6169;44.158;22.788;2023-04-04T00:52:56;100113.75;;;11.74;61.27
12213;BME280;6169;44.158;22.788;2023-04-04T00:57:58;100098.97;;;10.88;61.71
12213;BME280;6169;44.158;22.788;2023-04-04T01:03:01;100095.91;;;11.61;59.17
12213;BME280;6169;44.158;22.788;2023-04-04T01:08:05;100087.63;;;11.46;59.70
12213;BME280;6169;44.158;22.788;2023-04-04T01:13:07;100090.19;;;10.81;60.41
12213;BME280;6169;44.158;22.788;2023-04-04T01:18:13;100089.22;;;11.42;60.24
12213;BME280;6169;44.158;22.788;2023-04-04T01:23:18;100081.56;;;11.11;61.65
12213;BME280;6169;44.158;22.788;2023-04-04T01:28:23;100076.59;;;11.90;59.03
12213;BME280;6169;44.158;22.788;2023-04-04T01:33:27;100071.88;;;11.21;61.19
12213;BME280;6169;44.158;22.788;2023-04-04T01:38:37;100067.66;;;11.08;61.18
12213;BME280;6169;44.158;22.788;2023-04-04T01:43:45;100075.63;;;11.74;59.00
12213;BME280;6169;44.158;22.788;2023-04-04T01:48:47;100080.72;;;11.92;58.03
12213;BME280;6169;44.158;22.788;2023-04-04T01:53:50;100069.50;;;11.29;58.69
12213;BME280;6169;44.158;22.788;2023-04-04T01:58:53;100070.19;;;10.71;60.98
12213;BME280;6169;44.158;22.788;2023-04-04T02:03:55;100069.78;;;11.28;59.12
12213;BME280;6169;44.158;22.788;2023-04-04T02:08:58;100070.13;;;11.36;57.97
12213;BME280;6169;44.158;22.788;2023-04-04T02:14:02;100073.28;;;11.01;59.21
12213;BME280;6169;44.158;22.788;2023-04-04T02:19:04;100090.28;;;11.68;57.34
12213;BME280;6169;44.158;22.788;2023-04-04T02:24:07;100080.19;;;12.38;55.09
12213;BME280;6169;44.158;22.788;2023-04-04T02:29:10;100088.38;;;11.41;56.99
12213;BME280;6169;44.158;22.788;2023-04-04T02:34:14;100081.81;;;11.37;57.08
12213;BME280;6169;44.158;22.788;2023-04-04T02:39:16;100085.41;;;11.75;55.16
12213;BME280;6169;44.158;22.788;2023-04-04T02:44:20;100062.91;;;11.79;54.51
12213;BME280;6169;44.158;22.788;2023-04-04T02:49:22;100094.69;;;11.74;55.14
12213;BME280;6169;44.158;22.788;2023-04-04T02:54:25;100092.31;;;12.15;54.13
12213;BME280;6169;44.158;22.788;2023-04-04T02:59:29;100106.03;;;11.66;54.95
12213;BME280;6169;44.158;22.788;2023-04-04T03:04:31;100094.28;;;11.33;55.30
12213;BME280;6169;44.158;22.788;2023-04-04T03:09:33;100104.81;;;11.24;56.00
12213;BME280;6169;44.158;22.788;2023-04-04T03:14:37;100111.81;;;10.93;56.34
12213;BME280;6169;44.158;22.788;2023-04-04T03:19:40;100078.34;;;10.93;55.12
12213;BME280;6169;44.158;22.788;2023-04-04T03:24:42;100107.72;;;11.72;54.00
12213;BME280;6169;44.158;22.788;2023-04-04T03:29:46;100134.69;;;12.00;52.36
12213;BME280;6169;44.158;22.788;2023-04-04T03:34:48;100139.50;;;11.12;55.75
12213;BME280;6169;44.158;22.788;2023-04-04T03:39:51;100143.53;;;11.31;54.74
12213;BME280;6169;44.158;22.788;2023-04-04T03:44:55;100148.22;;;11.63;53.65
12213;BME280;6169;44.158;22.788;2023-04-04T03:49:57;100165.88;;;12.15;52.04
12213;BME280;6169;44.158;22.788;2023-04-04T03:54:59;100150.91;;;11.85;53.13
12213;BME280;6169;44.158;22.788;2023-04-04T04:00:04;100090.53;;;11.66;51.92
12213;BME280;6169;44.158;22.788;2023-04-04T04:05:07;100163.28;;;12.78;50.65
12213;BME280;6169;44.158;22.788;2023-04-04T04:10:09;100169.13;;;12.91;50.27
12213;BME280;6169;44.158;22.788;2023-04-04T04:15:15;100176.03;;;12.67;50.95
12213;BME280;6169;44.158;22.788;2023-04-04T04:20:17;100160.44;;;12.15;51.08
12213;BME280;6169;44.158;22.788;2023-04-04T04:25:19;100183.00;;;12.90;49.88
12213;BME280;6169;44.158;22.788;2023-04-04T04:30:23;100178.66;;;12.14;50.86
12213;BME280;6169;44.158;22.788;2023-04-04T04:35:26;100182.25;;;11.88;52.33
12213;BME280;6169;44.158;22.788;2023-04-04T04:40:28;100185.00;;;11.17;54.60
12213;BME280;6169;44.158;22.788;2023-04-04T04:45:31;100187.75;;;11.93;52.26
12213;BME280;6169;44.158;22.788;2023-04-04T04:50:33;100199.25;;;12.00;53.05
12213;BME280;6169;44.158;22.788;2023-04-04T04:55:36;100196.31;;;12.07;52.76
12213;BME280;6169;44.158;22.788;2023-04-04T05:00:39;100198.00;;;12.13;51.95
12213;BME280;6169;44.158;22.788;2023-04-04T05:05:42;100219.69;;;11.75;53.21
12213;BME280;6169;44.158;22.788;2023-04-04T05:10:44;100218.34;;;11.29;54.09
12213;BME280;6169;44.158;22.788;2023-04-04T05:15:48;100220.75;;;11.25;53.36
12213;BME280;6169;44.158;22.788;2023-04-04T05:20:50;100230.63;;;11.53;54.08
12213;BME280;6169;44.158;22.788;2023-04-04T05:25:53;100226.75;;;12.31;51.29
12213;BME280;6169;44.158;22.788;2023-04-04T05:30:56;100238.25;;;12.06;52.67
12213;BME280;6169;44.158;22.788;2023-04-04T05:35:59;100232.69;;;12.22;51.32
12213;BME280;6169;44.158;22.788;2023-04-04T05:41:01;100234.75;;;11.61;53.09
12213;BME280;6169;44.158;22.788;2023-04-04T05:46:05;100235.22;;;11.09;52.61
12213;BME280;6169;44.158;22.788;2023-04-04T05:51:07;100242.38;;;11.59;52.25
12213;BME280;6169;44.158;22.788;2023-04-04T05:56:09;100236.19;;;11.42;53.11
12213;BME280;6169;44.158;22.788;2023-04-04T06:01:13;100235.97;;;11.04;53.82
12213;BME280;6169;44.158;22.788;2023-04-04T06:06:15;100195.41;;;10.81;53.13
12213;BME280;6169;44.158;22.788;2023-04-04T06:11:18;100238.50;;;11.55;52.02
12213;BME280;6169;44.158;22.788;2023-04-04T06:16:22;100239.00;;;11.74;52.47
12213;BME280;6169;44.158;22.788;2023-04-04T06:21:25;100239.03;;;11.52;52.48
12213;BME280;6169;44.158;22.788;2023-04-04T06:26:27;100237.38;;;12.27;51.20
12213;BME280;6169;44.158;22.788;2023-04-04T06:31:31;100245.94;;;12.41;50.80
12213;BME280;6169;44.158;22.788;2023-04-04T06:36:33;100249.81;;;11.42;52.53
12213;BME280;6169;44.158;22.788;2023-04-04T06:41:35;100255.03;;;11.70;52.65
12213;BME280;6169;44.158;22.788;2023-04-04T06:46:39;100250.47;;;11.98;51.48
12213;BME280;6169;44.158;22.788;2023-04-04T06:51:41;100256.00;;;12.08;51.82
12213;BME280;6169;44.158;22.788;2023-04-04T06:56:44;100268.75;;;13.04;50.26
12213;BME280;6169;44.158;22.788;2023-04-04T07:01:47;100260.19;;;12.53;51.19
12213;BME280;6169;44.158;22.788;2023-04-04T07:06:50;100263.34;;;12.40;50.96
12213;BME280;6169;44.158;22.788;2023-04-04T07:11:52;100274.03;;;12.14;51.17
12213;BME280;6169;44.158;22.788;2023-04-04T07:16:55;100276.44;;;11.84;52.28
12213;BME280;6169;44.158;22.788;2023-04-04T07:21:57;100290.84;;;12.06;51.88
12213;BME280;6169;44.158;22.788;2023-04-04T07:27:00;100287.59;;;12.36;50.33
12213;BME280;6169;44.158;22.788;2023-04-04T07:32:04;100302.69;;;11.90;50.05
12213;BME280;6169;44.158;22.788;2023-04-04T07:37:06;100305.38;;;11.68;49.45
12213;BME280;6169;44.158;22.788;2023-04-04T07:42:08;100297.66;;;12.63;48.17
12213;BME280;6169;44.158;22.788;2023-04-04T07:47:12;100304.47;;;12.33;48.27
12213;BME280;6169;44.158;22.788;2023-04-04T07:52:14;100309.81;;;12.50;48.02
12213;BME280;6169;44.158;22.788;2023-04-04T07:57:16;100312.09;;;12.63;48.17
12213;BME280;6169;44.158;22.788;2023-04-04T08:02:20;100322.16;;;12.31;48.44
12213;BME280;6169;44.158;22.788;2023-04-04T08:07:22;100335.75;;;12.85;46.44
12213;BME280;6169;44.158;22.788;2023-04-04T08:12:24;100342.44;;;12.13;47.21
12213;BME280;6169;44.158;22.788;2023-04-04T08:17:28;100332.72;;;12.00;47.74
12213;BME280;6169;44.158;22.788;2023-04-04T08:22:30;100340.94;;;12.54;47.15
12213;BME280;6169;44.158;22.788;2023-04-04T08:27:33;100343.13;;;12.84;48.15
12213;BME280;6169;44.158;22.788;2023-04-04T08:32:36;100351.16;;;12.15;47.91
12213;BME280;6169;44.158;22.788;2023-04-04T08:37:43;100348.84;;;13.20;46.71
12213;BME280;6169;44.158;22.788;2023-04-04T08:42:45;100300.38;;;12.63;45.94
12213;BME280;6169;44.158;22.788;2023-04-04T08:47:51;100351.84;;;12.54;47.99
12213;BME280;6169;44.158;22.788;2023-04-04T08:52:55;100363.91;;;13.28;46.86
12213;BME280;6169;44.158;22.788;2023-04-04T08:57:58;100369.41;;;13.75;45.49
12213;BME280;6169;44.158;22.788;2023-04-04T09:03:07;100378.00;;;14.10;45.03
12213;BME280;6169;44.158;22.788;2023-04-04T09:08:11;100374.31;;;12.94;46.03
12213;BME280;6169;44.158;22.788;2023-04-04T09:13:14;100366.00;;;13.15;45.59
12213;BME280;6169;44.158;22.788;2023-04-04T09:18:18;100373.91;;;12.53;48.83
12213;BME280;6169;44.158;22.788;2023-04-04T09:23:20;100378.16;;;12.70;48.93
12213;BME280;6169;44.158;22.788;2023-04-04T09:28:23;100381.16;;;13.86;46.76
12213;BME280;6169;44.158;22.788;2023-04-04T09:33:28;100383.25;;;14.32;46.18
12213;BME280;6169;44.158;22.788;2023-04-04T09:38:35;100380.88;;;13.83;45.80
12213;BME280;6169;44.158;22.788;2023-04-04T09:43:39;100385.84;;;13.91;45.07
12213;BME280;6169;44.158;22.788;2023-04-04T09:48:48;100402.03;;;14.08;44.72
12213;BME280;6169;44.158;22.788;2023-04-04T09:53:51;100399.72;;;13.79;44.33
12213;BME280;6169;44.158;22.788;2023-04-04T09:58:53;100393.28;;;13.10;47.52
12213;BME280;6169;44.158;22.788;2023-04-04T10:03:57;100398.97;;;13.46;45.42
12213;BME280;6169;44.158;22.788;2023-04-04T10:08:59;100400.94;;;14.09;44.23
12213;BME280;6169;44.158;22.788;2023-04-04T10:14:03;100401.78;;;13.62;45.07
12213;BME280;6169;44.158;22.788;2023-04-04T10:19:08;100399.44;;;13.38;45.61
12213;BME280;6169;44.158;22.788;2023-04-04T10:24:12;100400.63;;;14.00;43.89
12213;BME280;6169;44.158;22.788;2023-04-04T10:29:14;100406.41;;;14.14;44.21
12213;BME280;6169;44.158;22.788;2023-04-04T10:34:20;100406.69;;;14.17;45.05
12213;BME280;6169;44.158;22.788;2023-04-04T10:39:26;100407.63;;;14.54;42.26
12213;BME280;6169;44.158;22.788;2023-04-04T10:44:32;100407.44;;;14.81;42.33
12213;BME280;6169;44.158;22.788;2023-04-04T10:49:36;100412.38;;;14.89;41.43
12213;BME280;6169;44.158;22.788;2023-04-04T10:54:40;100421.91;;;14.76;41.29
12213;BME280;6169;44.158;22.788;2023-04-04T10:59:56;100416.47;;;15.53;42.03
12213;BME280;6169;44.158;22.788;2023-04-04T11:05:10;100421.19;;;14.13;39.70
12213;BME280;6169;44.158;22.788;2023-04-04T11:10:14;100430.16;;;14.86;40.68
12213;BME280;6169;44.158;22.788;2023-04-04T11:15:20;100424.66;;;15.32;41.33
12213;BME280;6169;44.158;22.788;2023-04-04T11:20:28;100404.41;;;15.18;40.54
12213;BME280;6169;44.158;22.788;2023-04-04T11:25:36;100429.06;;;14.98;40.42
12213;BME280;6169;44.158;22.788;2023-04-04T11:30:40;100430.69;;;15.55;40.38
12213;BME280;6169;44.158;22.788;2023-04-04T11:35:49;100430.13;;;11.88;48.84
12213;BME280;6169;44.158;22.788;2023-04-04T11:40:53;100451.81;;;11.83;49.93
12213;BME280;6169;44.158;22.788;2023-04-04T11:46:04;100440.16;;;11.14;51.67
12213;BME280;6169;44.158;22.788;2023-04-04T11:51:12;100450.38;;;11.07;52.31
12213;BME280;6169;44.158;22.788;2023-04-04T11:56:15;100452.78;;;11.38;51.41
12213;BME280;6169;44.158;22.788;2023-04-04T12:01:18;100456.97;;;10.95;51.86
12213;BME280;6169;44.158;22.788;2023-04-04T12:06:23;100461.50;;;11.40;50.96
12213;BME280;6169;44.158;22.788;2023-04-04T12:11:28;100458.19;;;11.04;52.53
12213;BME280;6169;44.158;22.788;2023-04-04T12:16:31;100460.69;;;11.05;52.09
12213;BME280;6169;44.158;22.788;2023-04-04T12:21:35;100469.38;;;11.36;50.26
12213;BME280;6169;44.158;22.788;2023-04-04T12:26:39;100461.25;;;11.24;49.11
12213;BME280;6169;44.158;22.788;2023-04-04T12:31:44;100469.06;;;11.88;47.55
12213;BME280;6169;44.158;22.788;2023-04-04T12:36:51;100470.81;;;11.10;48.47
12213;BME280;6169;44.158;22.788;2023-04-04T12:41:56;100475.84;;;11.35;49.31
12213;BME280;6169;44.158;22.788;2023-04-04T12:47:00;100471.00;;;11.20;48.21
12213;BME280;6169;44.158;22.788;2023-04-04T12:52:05;100478.66;;;11.40;48.36
12213;BME280;6169;44.158;22.788;2023-04-04T12:57:08;100470.19;;;12.09;46.03
12213;BME280;6169;44.158;22.788;2023-04-04T13:02:14;100471.22;;;11.19;47.26
12213;BME280;6169;44.158;22.788;2023-04-04T13:07:24;100477.06;;;10.94;46.85
12213;BME280;6169;44.158;22.788;2023-04-04T13:12:54;100487.59;;;10.90;46.53
12213;BME280;6169;44.158;22.788;2023-04-04T13:17:57;100488.22;;;11.26;46.10
12213;BME280;6169;44.158;22.788;2023-04-04T13:23:15;100364.22;;;10.05;46.09
12213;BME280;6169;44.158;22.788;2023-04-04T13:28:17;100497.63;;;11.52;44.31
12213;BME280;6169;44.158;22.788;2023-04-04T13:33:20;100508.28;;;11.70;43.52
12213;BME280;6169;44.158;22.788;2023-04-04T13:38:24;100472.09;;;10.90;43.93
12213;BME280;6169;44.158;22.788;2023-04-04T13:43:27;100514.69;;;11.13;43.96
12213;BME280;6169;44.158;22.788;2023-04-04T13:48:29;100517.31;;;11.08;43.83
12213;BME280;6169;44.158;22.788;2023-04-04T13:53:33;100514.78;;;10.90;44.60
12213;BME280;6169;44.158;22.788;2023-04-04T13:58:35;100516.94;;;11.33;43.26
12213;BME280;6169;44.158;22.788;2023-04-04T14:03:38;100530.25;;;11.01;42.46
12213;BME280;6169;44.158;22.788;2023-04-04T14:08:41;100525.75;;;10.14;43.37
12213;BME280;6169;44.158;22.788;2023-04-04T14:13:44;100539.09;;;10.16;44.05
12213;BME280;6169;44.158;22.788;2023-04-04T14:18:46;100534.97;;;10.77;42.85
12213;BME280;6169;44.158;22.788;2023-04-04T14:23:51;100541.44;;;10.00;44.12
12213;BME280;6169;44.158;22.788;2023-04-04T14:28:53;100542.88;;;10.03;43.40
12213;BME280;6169;44.158;22.788;2023-04-04T14:33:55;100549.19;;;10.56;42.59
12213;BME280;6169;44.158;22.788;2023-04-04T14:38:59;100558.47;;;10.08;43.98
12213;BME280;6169;44.158;22.788;2023-04-04T14:44:01;100567.88;;;10.29;42.71
12213;BME280;6169;44.158;22.788;2023-04-04T14:49:04;100565.44;;;10.15;41.24
12213;BME280;6169;44.158;22.788;2023-04-04T14:54:08;100578.03;;;10.97;41.43
12213;BME280;6169;44.158;22.788;2023-04-04T14:59:10;100591.03;;;11.24;41.08
12213;BME280;6169;44.158;22.788;2023-04-04T15:04:12;100584.88;;;10.47;40.96
12213;BME280;6169;44.158;22.788;2023-04-04T15:09:16;100603.44;;;10.74;40.36
12213;BME280;6169;44.158;22.788;2023-04-04T15:14:18;100607.91;;;10.57;40.76
12213;BME280;6169;44.158;22.788;2023-04-04T15:19:20;100601.91;;;10.55;41.51
12213;BME280;6169;44.158;22.788;2023-04-04T15:24:24;100610.06;;;10.43;40.36
12213;BME280;6169;44.158;22.788;2023-04-04T15:29:27;100619.44;;;9.58;41.17
12213;BME280;6169;44.158;22.788;2023-04-04T15:34:30;100609.25;;;10.31;41.66
12213;BME280;6169;44.158;22.788;2023-04-04T15:39:34;100617.00;;;9.38;42.46
12213;BME280;6169;44.158;22.788;2023-04-04T15:44:36;100624.31;;;9.68;42.11
12213;BME280;6169;44.158;22.788;2023-04-04T15:49:39;100631.06;;;9.77;41.22
12213;BME280;6169;44.158;22.788;2023-04-04T15:54:42;100627.53;;;10.00;40.93
12213;BME280;6169;44.158;22.788;2023-04-04T15:59:45;100630.97;;;10.19;40.44
12213;BME280;6169;44.158;22.788;2023-04-04T16:04:47;100634.22;;;9.62;42.12
12213;BME280;6169;44.158;22.788;2023-04-04T16:09:50;100579.09;;;9.62;41.03
12213;BME280;6169;44.158;22.788;2023-04-04T16:14:53;100633.78;;;9.17;41.60
12213;BME280;6169;44.158;22.788;2023-04-04T16:19:56;100631.34;;;9.27;42.42
12213;BME280;6169;44.158;22.788;2023-04-04T16:25:00;100635.97;;;9.38;41.99
12213;BME280;6169;44.158;22.788;2023-04-04T16:30:04;100641.03;;;9.53;41.10
12213;BME280;6169;44.158;22.788;2023-04-04T16:35:08;100636.63;;;10.06;41.31
12213;BME280;6169;44.158;22.788;2023-04-04T16:40:13;100654.78;;;9.51;41.42
12213;BME280;6169;44.158;22.788;2023-04-04T16:45:16;100655.59;;;8.92;42.22
12213;BME280;6169;44.158;22.788;2023-04-04T16:50:19;100664.53;;;9.41;42.50
12213;BME280;6169;44.158;22.788;2023-04-04T16:55:24;100657.44;;;9.28;42.19
12213;BME280;6169;44.158;22.788;2023-04-04T17:00:27;100669.81;;;9.35;41.31
12213;BME280;6169;44.158;22.788;2023-04-04T17:05:30;100672.50;;;8.50;42.28
12213;BME280;6169;44.158;22.788;2023-04-04T17:10:34;100671.97;;;8.60;42.20
12213;BME280;6169;44.158;22.788;2023-04-04T17:15:39;100681.72;;;8.86;42.26
12213;BME280;6169;44.158;22.788;2023-04-04T17:20:42;100694.56;;;9.27;41.24
12213;BME280;6169;44.158;22.788;2023-04-04T17:25:48;100687.34;;;9.21;41.75
12213;BME280;6169;44.158;22.788;2023-04-04T17:30:51;100694.50;;;8.79;41.65
12213;BME280;6169;44.158;22.788;2023-04-04T17:35:54;100697.50;;;9.26;41.33
12213;BME280;6169;44.158;22.788;2023-04-04T17:40:59;100673.41;;;9.18;41.13
12213;BME280;6169;44.158;22.788;2023-04-04T17:46:03;100702.81;;;9.02;41.13
12213;BME280;6169;44.158;22.788;2023-04-04T17:51:06;100704.81;;;9.07;41.14
12213;BME280;6169;44.158;22.788;2023-04-04T17:56:11;100711.31;;;8.44;42.74
12213;BME280;6169;44.158;22.788;2023-04-04T18:01:14;100716.13;;;9.04;40.82
12213;BME280;6169;44.158;22.788;2023-04-04T18:06:17;100720.59;;;9.17;42.28
12213;BME280;6169;44.158;22.788;2023-04-04T18:11:22;100728.94;;;8.97;41.60
12213;BME280;6169;44.158;22.788;2023-04-04T18:16:25;100719.19;;;8.71;41.96
12213;BME280;6169;44.158;22.788;2023-04-04T18:21:28;100729.78;;;8.97;41.36
12213;BME280;6169;44.158;22.788;2023-04-04T18:26:32;100719.16;;;9.44;41.24
12213;BME280;6169;44.158;22.788;2023-04-04T18:31:35;100731.53;;;9.89;40.63
12213;BME280;6169;44.158;22.788;2023-04-04T18:36:37;100737.34;;;9.92;41.15
12213;BME280;6169;44.158;22.788;2023-04-04T18:41:41;100731.91;;;10.58;40.01
12213;BME280;6169;44.158;22.788;2023-04-04T18:46:43;100735.81;;;10.74;40.27
12213;BME280;6169;44.158;22.788;2023-04-04T18:51:46;100737.09;;;10.47;41.07
12213;BME280;6169;44.158;22.788;2023-04-04T18:56:49;100738.13;;;9.81;42.08
12213;BME280;6169;44.158;22.788;2023-04-04T19:01:52;100741.72;;;9.63;42.71
12213;BME280;6169;44.158;22.788;2023-04-04T19:06:55;100748.81;;;9.64;43.07
12213;BME280;6169;44.158;22.788;2023-04-04T19:11:59;100739.00;;;9.45;42.00
12213;BME280;6169;44.158;22.788;2023-04-04T19:17:02;100738.78;;;9.65;41.78
12213;BME280;6169;44.158;22.788;2023-04-04T19:22:04;100741.19;;;9.73;42.21
12213;BME280;6169;44.158;22.788;2023-04-04T19:27:09;100741.84;;;9.50;42.03
12213;BME280;6169;44.158;22.788;2023-04-04T19:32:12;100734.19;;;9.65;42.22
12213;BME280;6169;44.158;22.788;2023-04-04T19:37:15;100747.75;;;9.47;43.03
12213;BME280;6169;44.158;22.788;2023-04-04T19:42:25;100739.44;;;9.78;41.92
12213;BME280;6169;44.158;22.788;2023-04-04T19:47:30;100738.97;;;9.82;42.30
12213;BME280;6169;44.158;22.788;2023-04-04T19:52:32;100734.72;;;9.55;42.15
12213;BME280;6169;44.158;22.788;2023-04-04T19:57:37;100738.88;;;10.00;41.54
12213;BME280;6169;44.158;22.788;2023-04-04T20:02:48;100738.09;;;9.32;42.49
12213;BME280;6169;44.158;22.788;2023-04-04T20:07:50;100743.66;;;8.82;43.62
12213;BME280;6169;44.158;22.788;2023-04-04T20:12:54;100746.19;;;9.02;43.32
12213;BME280;6169;44.158;22.788;2023-04-04T20:17:56;100735.78;;;8.81;42.97
12213;BME280;6169;44.158;22.788;2023-04-04T20:22:58;100742.44;;;8.60;44.28
12213;BME280;6169;44.158;22.788;2023-04-04T20:28:03;100736.81;;;8.36;43.40
12213;BME280;6169;44.158;22.788;2023-04-04T20:33:30;100732.03;;;9.00;42.69
12213;BME280;6169;44.158;22.788;2023-04-04T20:38:34;100736.69;;;9.30;42.29
12213;BME280;6169;44.158;22.788;2023-04-04T20:43:39;100733.44;;;9.21;42.88
12213;BME280;6169;44.158;22.788;2023-04-04T20:48:41;100740.47;;;9.29;43.29
12213;BME280;6169;44.158;22.788;2023-04-04T20:53:46;100737.91;;;8.97;43.75
12213;BME280;6169;44.158;22.788;2023-04-04T20:58:50;100744.72;;;8.63;44.46
12213;BME280;6169;44.158;22.788;2023-04-04T21:03:52;100746.56;;;8.62;43.58
12213;BME280;6169;44.158;22.788;2023-04-04T21:08:54;100743.22;;;8.42;44.38
12213;BME280;6169;44.158;22.788;2023-04-04T21:13:58;100742.75;;;8.52;43.32
12213;BME280;6169;44.158;22.788;2023-04-04T21:19:00;100748.91;;;8.59;42.83
12213;BME280;6169;44.158;22.788;2023-04-04T21:24:05;100750.69;;;8.90;43.02
12213;BME280;6169;44.158;22.788;2023-04-04T21:29:17;100742.00;;;8.63;42.98
12213;BME280;6169;44.158;22.788;2023-04-04T21:34:22;100734.69;;;8.63;43.30
12213;BME280;6169;44.158;22.788;2023-04-04T21:39:26;100727.41;;;8.39;43.74
12213;BME280;6169;44.158;22.788;2023-04-04T21:44:31;100742.66;;;8.58;43.22
12213;BME280;6169;44.158;22.788;2023-04-04T21:49:33;100738.31;;;8.57;43.71
12213;BME280;6169;44.158;22.788;2023-04-04T21:54:35;100746.34;;;8.89;42.52
12213;BME280;6169;44.158;22.788;2023-04-04T21:59:39;100733.34;;;8.73;43.25
12213;BME280;6169;44.158;22.788;2023-04-04T22:04:41;100737.38;;;9.07;43.35
12213;BME280;6169;44.158;22.788;2023-04-04T22:09:43;100727.09;;;9.27;42.74
12213;BME280;6169;44.158;22.788;2023-04-04T22:14:47;100732.81;;;8.64;44.13
12213;BME280;6169;44.158;22.788;2023-04-04T22:19:50;100729.31;;;8.38;44.59
12213;BME280;6169;44.158;22.788;2023-04-04T22:24:58;100736.53;;;7.88;45.85
12213;BME280;6169;44.158;22.788;2023-04-04T22:30:08;100724.16;;;7.98;45.48
12213;BME280;6169;44.158;22.788;2023-04-04T22:35:10;100701.25;;;8.51;43.54
12213;BME280;6169;44.158;22.788;2023-04-04T22:40:12;100728.13;;;8.28;44.64
12213;BME280;6169;44.158;22.788;2023-04-04T22:45:16;100722.16;;;8.44;44.17
12213;BME280;6169;44.158;22.788;2023-04-04T22:50:20;100731.72;;;8.72;43.10
12213;BME280;6169;44.158;22.788;2023-04-04T22:55:24;100729.13;;;8.58;43.47
12213;BME280;6169;44.158;22.788;2023-04-04T23:00:28;100730.88;;;8.89;42.28
12213;BME280;6169;44.158;22.788;2023-04-04T23:05:31;100734.25;;;8.85;43.87
12213;BME280;6169;44.158;22.788;2023-04-04T23:10:33;100738.59;;;8.49;44.19
12213;BME280;6169;44.158;22.788;2023-04-04T23:15:36;100728.59;;;8.68;42.99
12213;BME280;6169;44.158;22.788;2023-04-04T23:20:40;100735.28;;;8.65;43.38
12213;BME280;6169;44.158;22.788;2023-04-04T23:25:43;100730.75;;;8.41;43.61
12213;BME280;6169;44.158;22.788;2023-04-04T23:30:46;100725.88;;;8.50;43.07
12213;BME280;6169;44.158;22.788;2023-04-04T23:35:49;100718.28;;;8.58;43.85
12213;BME280;6169;44.158;22.788;2023-04-04T23:40:51;100724.84;;;8.19;43.73
12213;BME280;6169;44.158;22.788;2023-04-04T23:45:55;100697.25;;;8.54;44.04
12213;BME280;6169;44.158;22.788;2023-04-04T23:50:57;100714.91;;;8.13;44.25
12213;BME280;6169;44.158;22.788;2023-04-04T23:56:01;100695.63;;;8.28;44.70
